sensor_id;sensor_type;location;lat;lon;timestamp;P1;durP1;ratioP1;P2;durP2;ratioP2
47575;SDS011;33304;52.456;13.328;2023-04-24T00:00:53;1.73;;;1.63;;
47575;SDS011;33304;52.456;13.328;2023-04-24T00:03:23;1.77;;;1.67;;
47575;SDS011;33304;52.456;13.328;2023-04-24T00:05:51;1.80;;;1.70;;
47575;SDS011;33304;52.456;13.328;2023-04-24T00:08:18;3.47;;;1.77;;
47575;SDS011;33304;52.456;13.328;2023-04-24T00:10:45;1.90;;;1.80;;
47575;SDS011;33304;52.456;13.328;2023-04-24T00:13:13;1.80;;;1.70;;
47575;SDS011;33304;52.456;13.328;2023-04-24T00:15:40;2.13;;;1.70;;
47575;SDS011;33304;52.456;13.328;2023-04-24T00:18:07;1.77;;;1.67;;
47575;SDS011;33304;52.456;13.328;2023-04-24T00:20:35;2.10;;;1.83;;
47575;SDS011;33304;52.456;13.328;2023-04-24T00:23:03;1.90;;;1.80;;
47575;SDS011;33304;52.456;13.328;2023-04-24T00:25:30;2.47;;;1.60;;
47575;SDS011;33304;52.456;13.328;2023-04-24T00:27:57;1.63;;;1.53;;
47575;SDS011;33304;52.456;13.328;2023-04-24T00:30:24;4.97;;;1.63;;
47575;SDS011;33304;52.456;13.328;2023-04-24T00:32:51;1.90;;;1.80;;
47575;SDS011;33304;52.456;13.328;2023-04-24T00:35:18;1.60;;;1.50;;
47575;SDS011;33304;52.456;13.328;2023-04-24T00:37:47;1.90;;;1.80;;
47575;SDS011;33304;52.456;13.328;2023-04-24T00:40:15;2.07;;;1.97;;
47575;SDS011;33304;52.456;13.328;2023-04-24T00:42:42;1.53;;;1.43;;
47575;SDS011;33304;52.456;13.328;2023-04-24T00:45:10;1.93;;;1.83;;
47575;SDS011;33304;52.456;13.328;2023-04-24T00:47:38;2.00;;;1.90;;
47575;SDS011;33304;52.456;13.328;2023-04-24T00:50:07;1.77;;;1.67;;
47575;SDS011;33304;52.456;13.328;2023-04-24T00:52:34;1.93;;;1.83;;
47575;SDS011;33304;52.456;13.328;2023-04-24T00:55:04;1.87;;;1.77;;
47575;SDS011;33304;52.456;13.328;2023-04-24T00:57:32;1.70;;;1.60;;
47575;SDS011;33304;52.456;13.328;2023-04-24T00:59:59;3.43;;;1.80;;
47575;SDS011;33304;52.456;13.328;2023-04-24T01:02:26;1.83;;;1.70;;
47575;SDS011;33304;52.456;13.328;2023-04-24T01:04:55;1.93;;;1.63;;
47575;SDS011;33304;52.456;13.328;2023-04-24T01:07:22;1.73;;;1.53;;
47575;SDS011;33304;52.456;13.328;2023-04-24T01:09:50;1.90;;;1.80;;
47575;SDS011;33304;52.456;13.328;2023-04-24T01:12:19;4.07;;;2.07;;
47575;SDS011;33304;52.456;13.328;2023-04-24T01:14:46;2.37;;;2.17;;
47575;SDS011;33304;52.456;13.328;2023-04-24T01:17:15;2.00;;;1.90;;
47575;SDS011;33304;52.456;13.328;2023-04-24T01:19:42;1.87;;;1.77;;
47575;SDS011;33304;52.456;13.328;2023-04-24T01:22:11;3.10;;;2.00;;
47575;SDS011;33304;52.456;13.328;2023-04-24T01:24:40;1.93;;;1.83;;
47575;SDS011;33304;52.456;13.328;2023-04-24T01:27:08;2.23;;;2.10;;
47575;SDS011;33304;52.456;13.328;2023-04-24T01:29:36;3.77;;;2.30;;
47575;SDS011;33304;52.456;13.328;2023-04-24T01:32:04;2.40;;;2.20;;
47575;SDS011;33304;52.456;13.328;2023-04-24T01:34:32;2.00;;;1.90;;
47575;SDS011;33304;52.456;13.328;2023-04-24T01:37:00;2.40;;;1.90;;
47575;SDS011;33304;52.456;13.328;2023-04-24T01:39:28;2.20;;;2.00;;
47575;SDS011;33304;52.456;13.328;2023-04-24T01:41:56;1.90;;;1.80;;
47575;SDS011;33304;52.456;13.328;2023-04-24T01:44:23;2.60;;;2.40;;
47575;SDS011;33304;52.456;13.328;2023-04-24T01:46:50;2.10;;;2.00;;
47575;SDS011;33304;52.456;13.328;2023-04-24T01:49:19;2.13;;;2.03;;
47575;SDS011;33304;52.456;13.328;2023-04-24T01:51:47;2.60;;;2.40;;
47575;SDS011;33304;52.456;13.328;2023-04-24T01:54:14;2.10;;;2.00;;
47575;SDS011;33304;52.456;13.328;2023-04-24T01:56:43;2.17;;;2.07;;
47575;SDS011;33304;52.456;13.328;2023-04-24T01:59:10;2.10;;;2.00;;
47575;SDS011;33304;52.456;13.328;2023-04-24T02:01:38;3.47;;;2.63;;
47575;SDS011;33304;52.456;13.328;2023-04-24T02:04:06;2.33;;;2.13;;
47575;SDS011;33304;52.456;13.328;2023-04-24T02:06:34;2.23;;;2.10;;
47575;SDS011;33304;52.456;13.328;2023-04-24T02:09:02;2.10;;;1.97;;
47575;SDS011;33304;52.456;13.328;2023-04-24T02:11:29;2.30;;;2.03;;
47575;SDS011;33304;52.456;13.328;2023-04-24T02:13:58;3.00;;;2.27;;
47575;SDS011;33304;52.456;13.328;2023-04-24T02:16:25;1.87;;;1.77;;
47575;SDS011;33304;52.456;13.328;2023-04-24T02:18:52;3.57;;;2.30;;
47575;SDS011;33304;52.456;13.328;2023-04-24T02:21:20;2.10;;;2.00;;
47575;SDS011;33304;52.456;13.328;2023-04-24T02:23:47;2.07;;;1.97;;
47575;SDS011;33304;52.456;13.328;2023-04-24T02:26:14;2.33;;;2.13;;
47575;SDS011;33304;52.456;13.328;2023-04-24T02:28:43;2.17;;;1.93;;
47575;SDS011;33304;52.456;13.328;2023-04-24T02:31:11;2.43;;;2.23;;
47575;SDS011;33304;52.456;13.328;2023-04-24T02:33:40;2.20;;;2.00;;
47575;SDS011;33304;52.456;13.328;2023-04-24T02:36:07;2.00;;;1.90;;
47575;SDS011;33304;52.456;13.328;2023-04-24T02:38:34;2.10;;;2.00;;
47575;SDS011;33304;52.456;13.328;2023-04-24T02:41:01;2.17;;;2.07;;
47575;SDS011;33304;52.456;13.328;2023-04-24T02:43:31;2.23;;;2.03;;
47575;SDS011;33304;52.456;13.328;2023-04-24T02:45:59;2.20;;;2.00;;
47575;SDS011;33304;52.456;13.328;2023-04-24T02:48:27;2.20;;;2.00;;
47575;SDS011;33304;52.456;13.328;2023-04-24T02:50:54;2.40;;;2.00;;
47575;SDS011;33304;52.456;13.328;2023-04-24T02:53:22;2.33;;;2.20;;
47575;SDS011;33304;52.456;13.328;2023-04-24T02:55:50;2.30;;;2.10;;
47575;SDS011;33304;52.456;13.328;2023-04-24T02:58:17;2.43;;;2.23;;
47575;SDS011;33304;52.456;13.328;2023-04-24T03:00:45;2.40;;;2.20;;
47575;SDS011;33304;52.456;13.328;2023-04-24T03:03:12;3.37;;;2.00;;
47575;SDS011;33304;52.456;13.328;2023-04-24T03:05:42;1.97;;;1.87;;
47575;SDS011;33304;52.456;13.328;2023-04-24T03:08:09;2.23;;;2.03;;
47575;SDS011;33304;52.456;13.328;2023-04-24T03:10:36;5.00;;;2.33;;
47575;SDS011;33304;52.456;13.328;2023-04-24T03:13:04;2.47;;;2.27;;
47575;SDS011;33304;52.456;13.328;2023-04-24T03:15:31;1.93;;;1.83;;
47575;SDS011;33304;52.456;13.328;2023-04-24T03:17:58;2.43;;;2.23;;
47575;SDS011;33304;52.456;13.328;2023-04-24T03:20:26;2.70;;;2.50;;
47575;SDS011;33304;52.456;13.328;2023-04-24T03:22:56;2.17;;;2.07;;
47575;SDS011;33304;52.456;13.328;2023-04-24T03:25:24;2.37;;;2.20;;
47575;SDS011;33304;52.456;13.328;2023-04-24T03:27:52;2.30;;;2.10;;
47575;SDS011;33304;52.456;13.328;2023-04-24T03:30:30;2.40;;;2.20;;
47575;SDS011;33304;52.456;13.328;2023-04-24T03:32:59;2.60;;;2.40;;
47575;SDS011;33304;52.456;13.328;2023-04-24T03:35:29;2.30;;;2.10;;
47575;SDS011;33304;52.456;13.328;2023-04-24T03:38:01;1.93;;;1.83;;
47575;SDS011;33304;52.456;13.328;2023-04-24T03:40:48;2.30;;;2.10;;
47575;SDS011;33304;52.456;13.328;2023-04-24T03:43:32;2.90;;;1.87;;
47575;SDS011;33304;52.456;13.328;2023-04-24T03:46:00;2.33;;;2.13;;
47575;SDS011;33304;52.456;13.328;2023-04-24T03:48:30;2.67;;;2.47;;
47575;SDS011;33304;52.456;13.328;2023-04-24T03:50:57;2.57;;;2.37;;
47575;SDS011;33304;52.456;13.328;2023-04-24T03:53:26;2.40;;;2.20;;
47575;SDS011;33304;52.456;13.328;2023-04-24T03:55:54;2.10;;;1.90;;
47575;SDS011;33304;52.456;13.328;2023-04-24T03:58:22;2.60;;;2.40;;
47575;SDS011;33304;52.456;13.328;2023-04-24T04:00:50;2.20;;;2.00;;
47575;SDS011;33304;52.456;13.328;2023-04-24T04:03:37;2.30;;;2.20;;
47575;SDS011;33304;52.456;13.328;2023-04-24T04:06:04;4.70;;;2.40;;
47575;SDS011;33304;52.456;13.328;2023-04-24T04:08:33;2.00;;;1.90;;
47575;SDS011;33304;52.456;13.328;2023-04-24T04:11:00;2.33;;;2.10;;
47575;SDS011;33304;52.456;13.328;2023-04-24T04:13:28;2.40;;;2.10;;
47575;SDS011;33304;52.456;13.328;2023-04-24T04:15:55;2.97;;;2.30;;
47575;SDS011;33304;52.456;13.328;2023-04-24T04:18:23;2.07;;;1.97;;
47575;SDS011;33304;52.456;13.328;2023-04-24T04:20:50;1.87;;;1.77;;
47575;SDS011;33304;52.456;13.328;2023-04-24T04:23:17;2.20;;;2.00;;
47575;SDS011;33304;52.456;13.328;2023-04-24T04:26:24;1.97;;;1.83;;
47575;SDS011;33304;52.456;13.328;2023-04-24T04:29:07;2.80;;;2.30;;
47575;SDS011;33304;52.456;13.328;2023-04-24T04:31:40;1.93;;;1.83;;
47575;SDS011;33304;52.456;13.328;2023-04-24T04:34:10;2.23;;;2.13;;
47575;SDS011;33304;52.456;13.328;2023-04-24T04:36:38;2.17;;;2.07;;
47575;SDS011;33304;52.456;13.328;2023-04-24T04:39:23;2.13;;;2.00;;
47575;SDS011;33304;52.456;13.328;2023-04-24T04:41:59;1.80;;;1.70;;
47575;SDS011;33304;52.456;13.328;2023-04-24T04:44:33;2.10;;;1.90;;
47575;SDS011;33304;52.456;13.328;2023-04-24T04:47:02;2.10;;;1.87;;
47575;SDS011;33304;52.456;13.328;2023-04-24T04:49:32;2.10;;;2.00;;
47575;SDS011;33304;52.456;13.328;2023-04-24T04:52:00;1.70;;;1.60;;
47575;SDS011;33304;52.456;13.328;2023-04-24T04:54:28;2.20;;;2.00;;
47575;SDS011;33304;52.456;13.328;2023-04-24T04:56:56;1.67;;;1.57;;
47575;SDS011;33304;52.456;13.328;2023-04-24T04:59:25;2.70;;;2.00;;
47575;SDS011;33304;52.456;13.328;2023-04-24T05:01:58;1.60;;;1.50;;
47575;SDS011;33304;52.456;13.328;2023-04-24T05:04:26;2.10;;;1.90;;
47575;SDS011;33304;52.456;13.328;2023-04-24T05:06:53;1.63;;;1.53;;
47575;SDS011;33304;52.456;13.328;2023-04-24T05:09:22;1.63;;;1.53;;
47575;SDS011;33304;52.456;13.328;2023-04-24T05:11:55;2.50;;;1.67;;
47575;SDS011;33304;52.456;13.328;2023-04-24T05:14:25;1.20;;;1.20;;
47575;SDS011;33304;52.456;13.328;2023-04-24T05:16:52;1.50;;;1.40;;
47575;SDS011;33304;52.456;13.328;2023-04-24T05:19:21;1.43;;;1.33;;
47575;SDS011;33304;52.456;13.328;2023-04-24T05:21:48;1.20;;;1.13;;
47575;SDS011;33304;52.456;13.328;2023-04-24T05:24:15;2.17;;;1.57;;
47575;SDS011;33304;52.456;13.328;2023-04-24T05:27:00;1.40;;;1.30;;
47575;SDS011;33304;52.456;13.328;2023-04-24T05:29:36;1.60;;;1.33;;
47575;SDS011;33304;52.456;13.328;2023-04-24T05:32:04;1.40;;;1.30;;
47575;SDS011;33304;52.456;13.328;2023-04-24T05:34:31;1.10;;;1.10;;
47575;SDS011;33304;52.456;13.328;2023-04-24T05:36:58;1.40;;;1.30;;
47575;SDS011;33304;52.456;13.328;2023-04-24T05:39:25;1.57;;;1.10;;
47575;SDS011;33304;52.456;13.328;2023-04-24T05:41:54;1.47;;;1.37;;
47575;SDS011;33304;52.456;13.328;2023-04-24T05:44:23;1.50;;;1.40;;
47575;SDS011;33304;52.456;13.328;2023-04-24T05:46:52;1.53;;;1.43;;
47575;SDS011;33304;52.456;13.328;2023-04-24T05:49:20;3.03;;;1.10;;
47575;SDS011;33304;52.456;13.328;2023-04-24T05:51:48;2.10;;;1.80;;
47575;SDS011;33304;52.456;13.328;2023-04-24T05:54:16;1.20;;;1.10;;
47575;SDS011;33304;52.456;13.328;2023-04-24T05:56:43;1.23;;;1.17;;
47575;SDS011;33304;52.456;13.328;2023-04-24T05:59:15;1.50;;;1.40;;
47575;SDS011;33304;52.456;13.328;2023-04-24T06:01:42;1.50;;;1.40;;
47575;SDS011;33304;52.456;13.328;2023-04-24T06:04:16;1.57;;;1.47;;
47575;SDS011;33304;52.456;13.328;2023-04-24T06:06:43;1.50;;;1.40;;
47575;SDS011;33304;52.456;13.328;2023-04-24T06:09:11;1.00;;;1.00;;
47575;SDS011;33304;52.456;13.328;2023-04-24T06:11:38;1.40;;;1.30;;
47575;SDS011;33304;52.456;13.328;2023-04-24T06:14:08;1.63;;;1.30;;
47575;SDS011;33304;52.456;13.328;2023-04-24T06:16:38;1.37;;;1.27;;
47575;SDS011;33304;52.456;13.328;2023-04-24T06:19:20;1.83;;;1.30;;
47575;SDS011;33304;52.456;13.328;2023-04-24T06:21:47;1.83;;;1.50;;
47575;SDS011;33304;52.456;13.328;2023-04-24T06:24:15;1.40;;;1.30;;
47575;SDS011;33304;52.456;13.328;2023-04-24T06:26:42;0.80;;;0.80;;
47575;SDS011;33304;52.456;13.328;2023-04-24T06:29:10;1.20;;;1.13;;
47575;SDS011;33304;52.456;13.328;2023-04-24T06:31:37;0.90;;;0.90;;
47575;SDS011;33304;52.456;13.328;2023-04-24T06:34:04;0.93;;;0.93;;
47575;SDS011;33304;52.456;13.328;2023-04-24T06:36:32;0.70;;;0.70;;
47575;SDS011;33304;52.456;13.328;2023-04-24T06:39:01;1.13;;;0.90;;
47575;SDS011;33304;52.456;13.328;2023-04-24T06:41:28;0.83;;;0.83;;
47575;SDS011;33304;52.456;13.328;2023-04-24T06:43:55;0.97;;;0.83;;
47575;SDS011;33304;52.456;13.328;2023-04-24T06:46:22;1.23;;;1.10;;
47575;SDS011;33304;52.456;13.328;2023-04-24T06:48:51;1.13;;;1.07;;
47575;SDS011;33304;52.456;13.328;2023-04-24T06:51:21;1.17;;;0.83;;
47575;SDS011;33304;52.456;13.328;2023-04-24T06:53:50;1.37;;;0.97;;
47575;SDS011;33304;52.456;13.328;2023-04-24T06:56:18;0.90;;;0.90;;
47575;SDS011;33304;52.456;13.328;2023-04-24T06:58:45;0.80;;;0.80;;
47575;SDS011;33304;52.456;13.328;2023-04-24T07:01:12;0.80;;;0.80;;
47575;SDS011;33304;52.456;13.328;2023-04-24T07:03:40;1.00;;;0.90;;
47575;SDS011;33304;52.456;13.328;2023-04-24T07:06:07;1.07;;;0.80;;
47575;SDS011;33304;52.456;13.328;2023-04-24T07:08:35;0.80;;;0.80;;
47575;SDS011;33304;52.456;13.328;2023-04-24T07:11:04;0.87;;;0.70;;
47575;SDS011;33304;52.456;13.328;2023-04-24T07:13:31;1.57;;;0.70;;
47575;SDS011;33304;52.456;13.328;2023-04-24T07:16:00;0.70;;;0.70;;
47575;SDS011;33304;52.456;13.328;2023-04-24T07:18:28;0.80;;;0.80;;
47575;SDS011;33304;52.456;13.328;2023-04-24T07:20:55;0.70;;;0.70;;
47575;SDS011;33304;52.456;13.328;2023-04-24T07:23:22;0.80;;;0.80;;
47575;SDS011;33304;52.456;13.328;2023-04-24T07:25:49;0.77;;;0.77;;
47575;SDS011;33304;52.456;13.328;2023-04-24T07:28:18;0.80;;;0.60;;
47575;SDS011;33304;52.456;13.328;2023-04-24T07:30:45;0.50;;;0.50;;
47575;SDS011;33304;52.456;13.328;2023-04-24T07:33:12;1.10;;;0.80;;
47575;SDS011;33304;52.456;13.328;2023-04-24T07:35:39;0.63;;;0.63;;
47575;SDS011;33304;52.456;13.328;2023-04-24T07:38:06;0.60;;;0.50;;
47575;SDS011;33304;52.456;13.328;2023-04-24T07:40:33;0.60;;;0.60;;
47575;SDS011;33304;52.456;13.328;2023-04-24T07:43:00;0.60;;;0.60;;
47575;SDS011;33304;52.456;13.328;2023-04-24T07:45:29;0.60;;;0.60;;
47575;SDS011;33304;52.456;13.328;2023-04-24T07:47:56;0.60;;;0.60;;
47575;SDS011;33304;52.456;13.328;2023-04-24T07:50:23;1.13;;;0.80;;
47575;SDS011;33304;52.456;13.328;2023-04-24T07:52:51;0.63;;;0.60;;
47575;SDS011;33304;52.456;13.328;2023-04-24T07:55:18;0.80;;;0.80;;
47575;SDS011;33304;52.456;13.328;2023-04-24T07:57:45;0.90;;;0.90;;
47575;SDS011;33304;52.456;13.328;2023-04-24T08:00:12;1.60;;;0.83;;
47575;SDS011;33304;52.456;13.328;2023-04-24T08:02:41;1.13;;;0.60;;
47575;SDS011;33304;52.456;13.328;2023-04-24T08:05:08;0.60;;;0.60;;
47575;SDS011;33304;52.456;13.328;2023-04-24T08:07:35;0.97;;;0.97;;
47575;SDS011;33304;52.456;13.328;2023-04-24T08:10:03;0.87;;;0.87;;
47575;SDS011;33304;52.456;13.328;2023-04-24T08:12:31;1.63;;;0.70;;
47575;SDS011;33304;52.456;13.328;2023-04-24T08:14:58;1.03;;;0.70;;
47575;SDS011;33304;52.456;13.328;2023-04-24T08:17:25;0.80;;;0.80;;
47575;SDS011;33304;52.456;13.328;2023-04-24T08:19:53;0.70;;;0.70;;
47575;SDS011;33304;52.456;13.328;2023-04-24T08:22:26;1.03;;;1.00;;
47575;SDS011;33304;52.456;13.328;2023-04-24T08:24:53;0.80;;;0.80;;
47575;SDS011;33304;52.456;13.328;2023-04-24T08:27:21;0.80;;;0.80;;
47575;SDS011;33304;52.456;13.328;2023-04-24T08:29:48;0.87;;;0.87;;
47575;SDS011;33304;52.456;13.328;2023-04-24T08:32:16;0.90;;;0.70;;
47575;SDS011;33304;52.456;13.328;2023-04-24T08:34:43;0.70;;;0.70;;
47575;SDS011;33304;52.456;13.328;2023-04-24T08:37:12;0.90;;;0.90;;
47575;SDS011;33304;52.456;13.328;2023-04-24T08:39:39;0.60;;;0.60;;
47575;SDS011;33304;52.456;13.328;2023-04-24T08:42:07;0.73;;;0.73;;
47575;SDS011;33304;52.456;13.328;2023-04-24T08:44:35;0.83;;;0.70;;
47575;SDS011;33304;52.456;13.328;2023-04-24T08:47:02;0.70;;;0.70;;
47575;SDS011;33304;52.456;13.328;2023-04-24T08:49:30;0.60;;;0.60;;
47575;SDS011;33304;52.456;13.328;2023-04-24T08:51:58;0.60;;;0.60;;
47575;SDS011;33304;52.456;13.328;2023-04-24T08:54:27;0.60;;;0.60;;
47575;SDS011;33304;52.456;13.328;2023-04-24T08:56:56;0.50;;;0.50;;
47575;SDS011;33304;52.456;13.328;2023-04-24T08:59:27;0.50;;;0.50;;
47575;SDS011;33304;52.456;13.328;2023-04-24T09:01:55;2.40;;;0.80;;
47575;SDS011;33304;52.456;13.328;2023-04-24T09:04:23;0.60;;;0.60;;
47575;SDS011;33304;52.456;13.328;2023-04-24T09:06:51;0.87;;;0.60;;
47575;SDS011;33304;52.456;13.328;2023-04-24T09:09:20;0.73;;;0.67;;
47575;SDS011;33304;52.456;13.328;2023-04-24T09:11:50;0.70;;;0.70;;
47575;SDS011;33304;52.456;13.328;2023-04-24T09:14:20;1.07;;;0.77;;
47575;SDS011;33304;52.456;13.328;2023-04-24T09:16:49;0.93;;;0.80;;
47575;SDS011;33304;52.456;13.328;2023-04-24T09:19:16;0.70;;;0.70;;
47575;SDS011;33304;52.456;13.328;2023-04-24T09:21:45;1.17;;;1.17;;
47575;SDS011;33304;52.456;13.328;2023-04-24T09:24:14;1.13;;;1.10;;
47575;SDS011;33304;52.456;13.328;2023-04-24T09:26:43;0.87;;;0.87;;
47575;SDS011;33304;52.456;13.328;2023-04-24T09:29:15;0.93;;;0.93;;
47575;SDS011;33304;52.456;13.328;2023-04-24T09:31:43;2.60;;;0.90;;
47575;SDS011;33304;52.456;13.328;2023-04-24T09:34:11;0.80;;;0.80;;
47575;SDS011;33304;52.456;13.328;2023-04-24T09:36:39;0.70;;;0.70;;
47575;SDS011;33304;52.456;13.328;2023-04-24T09:39:09;0.70;;;0.70;;
47575;SDS011;33304;52.456;13.328;2023-04-24T09:41:43;0.80;;;0.80;;
47575;SDS011;33304;52.456;13.328;2023-04-24T09:44:11;0.90;;;0.90;;
47575;SDS011;33304;52.456;13.328;2023-04-24T09:46:41;0.70;;;0.70;;
47575;SDS011;33304;52.456;13.328;2023-04-24T09:49:11;0.70;;;0.70;;
47575;SDS011;33304;52.456;13.328;2023-04-24T09:51:42;0.80;;;0.80;;
47575;SDS011;33304;52.456;13.328;2023-04-24T09:54:16;9.73;;;0.77;;
47575;SDS011;33304;52.456;13.328;2023-04-24T09:56:45;0.73;;;0.73;;
47575;SDS011;33304;52.456;13.328;2023-04-24T09:59:13;0.63;;;0.63;;
47575;SDS011;33304;52.456;13.328;2023-04-24T10:01:42;0.70;;;0.70;;
47575;SDS011;33304;52.456;13.328;2023-04-24T10:04:17;0.93;;;0.87;;
47575;SDS011;33304;52.456;13.328;2023-04-24T10:06:46;0.53;;;0.53;;
47575;SDS011;33304;52.456;13.328;2023-04-24T10:09:15;0.80;;;0.80;;
47575;SDS011;33304;52.456;13.328;2023-04-24T10:11:43;1.90;;;0.90;;
47575;SDS011;33304;52.456;13.328;2023-04-24T10:14:12;0.63;;;0.63;;
47575;SDS011;33304;52.456;13.328;2023-04-24T10:16:40;1.50;;;1.00;;
47575;SDS011;33304;52.456;13.328;2023-04-24T10:19:09;0.60;;;0.60;;
47575;SDS011;33304;52.456;13.328;2023-04-24T10:21:38;0.97;;;0.87;;
47575;SDS011;33304;52.456;13.328;2023-04-24T10:24:11;0.77;;;0.73;;
47575;SDS011;33304;52.456;13.328;2023-04-24T10:26:39;0.60;;;0.60;;
47575;SDS011;33304;52.456;13.328;2023-04-24T10:29:07;0.73;;;0.67;;
47575;SDS011;33304;52.456;13.328;2023-04-24T10:31:38;0.60;;;0.60;;
47575;SDS011;33304;52.456;13.328;2023-04-24T10:34:06;0.70;;;0.70;;
47575;SDS011;33304;52.456;13.328;2023-04-24T10:36:36;0.70;;;0.70;;
47575;SDS011;33304;52.456;13.328;2023-04-24T10:39:08;1.03;;;0.67;;
47575;SDS011;33304;52.456;13.328;2023-04-24T10:41:38;0.80;;;0.80;;
47575;SDS011;33304;52.456;13.328;2023-04-24T10:44:05;0.80;;;0.80;;
47575;SDS011;33304;52.456;13.328;2023-04-24T10:46:33;0.83;;;0.80;;
47575;SDS011;33304;52.456;13.328;2023-04-24T10:49:03;2.70;;;0.80;;
47575;SDS011;33304;52.456;13.328;2023-04-24T10:51:46;1.83;;;0.63;;
47575;SDS011;33304;52.456;13.328;2023-04-24T10:54:24;1.13;;;0.70;;
47575;SDS011;33304;52.456;13.328;2023-04-24T10:56:53;0.97;;;0.97;;
47575;SDS011;33304;52.456;13.328;2023-04-24T10:59:40;1.00;;;0.93;;
47575;SDS011;33304;52.456;13.328;2023-04-24T11:02:07;0.90;;;0.90;;
47575;SDS011;33304;52.456;13.328;2023-04-24T11:04:35;0.67;;;0.67;;
47575;SDS011;33304;52.456;13.328;2023-04-24T11:07:03;0.57;;;0.57;;
47575;SDS011;33304;52.456;13.328;2023-04-24T11:09:31;0.70;;;0.70;;
47575;SDS011;33304;52.456;13.328;2023-04-24T11:12:04;0.70;;;0.70;;
47575;SDS011;33304;52.456;13.328;2023-04-24T11:17:28;1.00;;;1.00;;
47575;SDS011;33304;52.456;13.328;2023-04-24T11:20:00;0.70;;;0.70;;
47575;SDS011;33304;52.456;13.328;2023-04-24T11:22:30;0.70;;;0.70;;
47575;SDS011;33304;52.456;13.328;2023-04-24T11:25:00;1.20;;;0.93;;
47575;SDS011;33304;52.456;13.328;2023-04-24T11:27:31;0.80;;;0.80;;
47575;SDS011;33304;52.456;13.328;2023-04-24T11:29:59;0.70;;;0.70;;
47575;SDS011;33304;52.456;13.328;2023-04-24T11:32:29;0.70;;;0.70;;
47575;SDS011;33304;52.456;13.328;2023-04-24T11:34:57;1.27;;;1.10;;
47575;SDS011;33304;52.456;13.328;2023-04-24T11:37:27;0.90;;;0.90;;
47575;SDS011;33304;52.456;13.328;2023-04-24T11:39:57;0.73;;;0.73;;
47575;SDS011;33304;52.456;13.328;2023-04-24T11:42:25;0.77;;;0.77;;
47575;SDS011;33304;52.456;13.328;2023-04-24T11:44:52;0.80;;;0.80;;
47575;SDS011;33304;52.456;13.328;2023-04-24T11:47:27;0.57;;;0.57;;
47575;SDS011;33304;52.456;13.328;2023-04-24T11:49:55;0.70;;;0.70;;
47575;SDS011;33304;52.456;13.328;2023-04-24T11:52:22;0.70;;;0.70;;
47575;SDS011;33304;52.456;13.328;2023-04-24T11:54:49;0.90;;;0.90;;
47575;SDS011;33304;52.456;13.328;2023-04-24T11:57:20;0.97;;;0.90;;
47575;SDS011;33304;52.456;13.328;2023-04-24T11:59:48;0.87;;;0.87;;
47575;SDS011;33304;52.456;13.328;2023-04-24T12:02:21;0.80;;;0.80;;
47575;SDS011;33304;52.456;13.328;2023-04-24T12:04:49;0.77;;;0.77;;
47575;SDS011;33304;52.456;13.328;2023-04-24T12:07:16;1.07;;;0.93;;
47575;SDS011;33304;52.456;13.328;2023-04-24T12:09:44;0.90;;;0.90;;
47575;SDS011;33304;52.456;13.328;2023-04-24T12:12:12;0.80;;;0.80;;
47575;SDS011;33304;52.456;13.328;2023-04-24T12:14:45;0.67;;;0.60;;
47575;SDS011;33304;52.456;13.328;2023-04-24T12:17:14;0.70;;;0.70;;
47575;SDS011;33304;52.456;13.328;2023-04-24T12:19:45;2.50;;;0.83;;
47575;SDS011;33304;52.456;13.328;2023-04-24T12:22:13;0.50;;;0.50;;
47575;SDS011;33304;52.456;13.328;2023-04-24T12:24:59;0.57;;;0.57;;
47575;SDS011;33304;52.456;13.328;2023-04-24T12:27:29;0.80;;;0.80;;
47575;SDS011;33304;52.456;13.328;2023-04-24T12:29:59;0.80;;;0.80;;
47575;SDS011;33304;52.456;13.328;2023-04-24T12:32:28;0.80;;;0.80;;
47575;SDS011;33304;52.456;13.328;2023-04-24T12:34:56;0.87;;;0.70;;
47575;SDS011;33304;52.456;13.328;2023-04-24T12:37:24;0.70;;;0.70;;
47575;SDS011;33304;52.456;13.328;2023-04-24T12:39:58;0.70;;;0.70;;
47575;SDS011;33304;52.456;13.328;2023-04-24T12:42:31;0.70;;;0.70;;
47575;SDS011;33304;52.456;13.328;2023-04-24T12:45:01;2.30;;;0.70;;
47575;SDS011;33304;52.456;13.328;2023-04-24T12:47:30;0.90;;;0.90;;
47575;SDS011;33304;52.456;13.328;2023-04-24T12:49:57;0.80;;;0.80;;
47575;SDS011;33304;52.456;13.328;2023-04-24T12:52:25;0.83;;;0.83;;
47575;SDS011;33304;52.456;13.328;2023-04-24T12:54:53;0.77;;;0.77;;
47575;SDS011;33304;52.456;13.328;2023-04-24T12:57:22;1.00;;;0.90;;
47575;SDS011;33304;52.456;13.328;2023-04-24T12:59:50;2.43;;;1.00;;
47575;SDS011;33304;52.456;13.328;2023-04-24T13:02:20;1.00;;;1.00;;
47575;SDS011;33304;52.456;13.328;2023-04-24T13:04:48;1.23;;;1.10;;
47575;SDS011;33304;52.456;13.328;2023-04-24T13:07:16;0.60;;;0.60;;
47575;SDS011;33304;52.456;13.328;2023-04-24T13:09:43;1.07;;;1.03;;
47575;SDS011;33304;52.456;13.328;2023-04-24T13:12:11;0.83;;;0.83;;
47575;SDS011;33304;52.456;13.328;2023-04-24T13:14:38;1.20;;;1.20;;
47575;SDS011;33304;52.456;13.328;2023-04-24T13:17:05;0.80;;;0.80;;
47575;SDS011;33304;52.456;13.328;2023-04-24T13:19:39;0.80;;;0.80;;
47575;SDS011;33304;52.456;13.328;2023-04-24T13:22:09;2.00;;;0.90;;
47575;SDS011;33304;52.456;13.328;2023-04-24T13:24:37;0.90;;;0.90;;
47575;SDS011;33304;52.456;13.328;2023-04-24T13:27:06;0.90;;;0.90;;
47575;SDS011;33304;52.456;13.328;2023-04-24T13:29:33;0.73;;;0.73;;
47575;SDS011;33304;52.456;13.328;2023-04-24T13:32:00;0.73;;;0.73;;
47575;SDS011;33304;52.456;13.328;2023-04-24T13:34:28;0.70;;;0.70;;
47575;SDS011;33304;52.456;13.328;2023-04-24T13:36:56;1.00;;;0.77;;
47575;SDS011;33304;52.456;13.328;2023-04-24T13:39:25;1.00;;;1.00;;
47575;SDS011;33304;52.456;13.328;2023-04-24T13:41:52;0.67;;;0.67;;
47575;SDS011;33304;52.456;13.328;2023-04-24T13:44:20;0.80;;;0.80;;
47575;SDS011;33304;52.456;13.328;2023-04-24T13:46:48;1.20;;;1.20;;
47575;SDS011;33304;52.456;13.328;2023-04-24T13:49:17;1.17;;;1.17;;
47575;SDS011;33304;52.456;13.328;2023-04-24T13:51:44;1.10;;;1.00;;
47575;SDS011;33304;52.456;13.328;2023-04-24T13:54:19;0.90;;;0.90;;
47575;SDS011;33304;52.456;13.328;2023-04-24T13:56:46;1.30;;;1.20;;
47575;SDS011;33304;52.456;13.328;2023-04-24T13:59:13;1.10;;;1.10;;
47575;SDS011;33304;52.456;13.328;2023-04-24T14:01:40;1.10;;;1.10;;
47575;SDS011;33304;52.456;13.328;2023-04-24T14:04:07;1.00;;;1.00;;
47575;SDS011;33304;52.456;13.328;2023-04-24T14:06:34;4.03;;;1.10;;
47575;SDS011;33304;52.456;13.328;2023-04-24T14:09:02;1.47;;;1.37;;
47575;SDS011;33304;52.456;13.328;2023-04-24T14:11:30;1.17;;;1.17;;
47575;SDS011;33304;52.456;13.328;2023-04-24T14:13:57;1.00;;;1.00;;
47575;SDS011;33304;52.456;13.328;2023-04-24T14:16:28;1.10;;;1.10;;
47575;SDS011;33304;52.456;13.328;2023-04-24T14:18:55;3.43;;;0.97;;
47575;SDS011;33304;52.456;13.328;2023-04-24T14:21:22;0.83;;;0.83;;
47575;SDS011;33304;52.456;13.328;2023-04-24T14:23:49;0.90;;;0.90;;
47575;SDS011;33304;52.456;13.328;2023-04-24T14:26:16;1.10;;;0.90;;
47575;SDS011;33304;52.456;13.328;2023-04-24T14:28:45;1.03;;;0.90;;
47575;SDS011;33304;52.456;13.328;2023-04-24T14:31:12;0.70;;;0.70;;
47575;SDS011;33304;52.456;13.328;2023-04-24T14:33:39;0.67;;;0.67;;
47575;SDS011;33304;52.456;13.328;2023-04-24T14:36:06;0.80;;;0.80;;
47575;SDS011;33304;52.456;13.328;2023-04-24T14:38:34;1.97;;;0.77;;
47575;SDS011;33304;52.456;13.328;2023-04-24T14:41:03;0.80;;;0.80;;
47575;SDS011;33304;52.456;13.328;2023-04-24T14:43:34;0.70;;;0.70;;
47575;SDS011;33304;52.456;13.328;2023-04-24T14:46:03;0.63;;;0.63;;